sensor_id;sensor_type;location;lat;lon;timestamp;P1;durP1;ratioP1;P2;durP2;ratioP2
20179;SDS011;10249;48.900;9.090;2022-07-23T00:01:24;18.05;;;16.70;;
20179;SDS011;10249;48.900;9.090;2022-07-23T00:03:54;16.23;;;15.43;;
20179;SDS011;10249;48.900;9.090;2022-07-23T00:06:21;15.55;;;14.85;;
20179;SDS011;10249;48.900;9.090;2022-07-23T00:08:49;17.02;;;16.13;;
20179;SDS011;10249;48.900;9.090;2022-07-23T00:11:16;16.60;;;15.80;;
20179;SDS011;10249;48.900;9.090;2022-07-23T00:13:43;17.10;;;16.20;;
20179;SDS011;10249;48.900;9.090;2022-07-23T00:16:10;15.57;;;14.87;;
20179;SDS011;10249;48.900;9.090;2022-07-23T00:18:36;16.23;;;15.43;;
20179;SDS011;10249;48.900;9.090;2022-07-23T00:21:05;16.90;;;16.00;;
20179;SDS011;10249;48.900;9.090;2022-07-23T00:23:32;17.17;;;16.27;;
20179;SDS011;10249;48.900;9.090;2022-07-23T00:25:59;16.73;;;15.93;;
20179;SDS011;10249;48.900;9.090;2022-07-23T00:28:26;16.63;;;15.77;;
20179;SDS011;10249;48.900;9.090;2022-07-23T00:30:52;15.87;;;15.17;;
20179;SDS011;10249;48.900;9.090;2022-07-23T00:33:19;15.60;;;14.90;;
20179;SDS011;10249;48.900;9.090;2022-07-23T00:35:46;16.30;;;15.50;;
20179;SDS011;10249;48.900;9.090;2022-07-23T00:38:14;15.77;;;15.07;;
20179;SDS011;10249;48.900;9.090;2022-07-23T00:40:41;16.63;;;15.80;;
20179;SDS011;10249;48.900;9.090;2022-07-23T00:43:08;15.70;;;15.00;;
20179;SDS011;10249;48.900;9.090;2022-07-23T00:45:34;15.83;;;15.13;;
20179;SDS011;10249;48.900;9.090;2022-07-23T00:48:01;15.83;;;15.13;;
20179;SDS011;10249;48.900;9.090;2022-07-23T00:50:28;16.80;;;15.90;;
20179;SDS011;10249;48.900;9.090;2022-07-23T00:52:55;15.93;;;15.13;;
20179;SDS011;10249;48.900;9.090;2022-07-23T00:55:24;16.37;;;15.60;;
20179;SDS011;10249;48.900;9.090;2022-07-23T00:57:51;15.57;;;14.87;;
20179;SDS011;10249;48.900;9.090;2022-07-23T01:00:19;16.50;;;15.70;;
20179;SDS011;10249;48.900;9.090;2022-07-23T01:02:46;18.53;;;17.43;;
20179;SDS011;10249;48.900;9.090;2022-07-23T01:05:13;16.30;;;15.40;;
20179;SDS011;10249;48.900;9.090;2022-07-23T01:07:40;15.50;;;14.80;;
20179;SDS011;10249;48.900;9.090;2022-07-23T01:10:08;16.40;;;15.60;;
20179;SDS011;10249;48.900;9.090;2022-07-23T01:12:50;16.03;;;15.17;;
20179;SDS011;10249;48.900;9.090;2022-07-23T01:15:16;14.80;;;14.20;;
20179;SDS011;10249;48.900;9.090;2022-07-23T01:17:43;16.73;;;15.83;;
20179;SDS011;10249;48.900;9.090;2022-07-23T01:20:10;15.63;;;14.93;;
20179;SDS011;10249;48.900;9.090;2022-07-23T01:22:38;14.73;;;14.13;;
20179;SDS011;10249;48.900;9.090;2022-07-23T01:25:05;14.70;;;14.10;;
20179;SDS011;10249;48.900;9.090;2022-07-23T01:27:33;14.50;;;13.90;;
20179;SDS011;10249;48.900;9.090;2022-07-23T01:30:00;14.50;;;13.90;;
20179;SDS011;10249;48.900;9.090;2022-07-23T01:32:28;15.10;;;14.50;;
20179;SDS011;10249;48.900;9.090;2022-07-23T01:34:54;14.50;;;13.90;;
20179;SDS011;10249;48.900;9.090;2022-07-23T01:37:21;14.40;;;13.80;;
20179;SDS011;10249;48.900;9.090;2022-07-23T01:39:49;14.85;;;14.25;;
20179;SDS011;10249;48.900;9.090;2022-07-23T01:42:16;14.60;;;14.00;;
20179;SDS011;10249;48.900;9.090;2022-07-23T01:44:43;15.10;;;14.50;;
20179;SDS011;10249;48.900;9.090;2022-07-23T01:47:09;14.67;;;14.07;;
20179;SDS011;10249;48.900;9.090;2022-07-23T01:49:36;14.70;;;14.10;;
20179;SDS011;10249;48.900;9.090;2022-07-23T01:52:03;14.43;;;13.83;;
20179;SDS011;10249;48.900;9.090;2022-07-23T01:54:34;14.60;;;14.00;;
20179;SDS011;10249;48.900;9.090;2022-07-23T01:57:02;14.37;;;13.77;;
20179;SDS011;10249;48.900;9.090;2022-07-23T01:59:30;14.30;;;13.70;;
20179;SDS011;10249;48.900;9.090;2022-07-23T02:01:57;14.50;;;13.90;;
20179;SDS011;10249;48.900;9.090;2022-07-23T02:04:24;14.27;;;13.67;;
20179;SDS011;10249;48.900;9.090;2022-07-23T02:06:52;14.73;;;14.13;;
20179;SDS011;10249;48.900;9.090;2022-07-23T02:09:19;14.40;;;13.80;;
20179;SDS011;10249;48.900;9.090;2022-07-23T02:11:45;14.43;;;13.83;;
20179;SDS011;10249;48.900;9.090;2022-07-23T02:14:13;14.30;;;13.70;;
20179;SDS011;10249;48.900;9.090;2022-07-23T02:16:40;14.70;;;14.10;;
20179;SDS011;10249;48.900;9.090;2022-07-23T02:19:07;15.07;;;14.37;;
20179;SDS011;10249;48.900;9.090;2022-07-23T02:21:34;14.10;;;13.50;;
20179;SDS011;10249;48.900;9.090;2022-07-23T02:24:00;15.57;;;14.87;;
20179;SDS011;10249;48.900;9.090;2022-07-23T02:26:27;16.40;;;15.47;;
20179;SDS011;10249;48.900;9.090;2022-07-23T02:28:54;15.77;;;15.07;;
20179;SDS011;10249;48.900;9.090;2022-07-23T02:31:22;14.67;;;13.97;;
20179;SDS011;10249;48.900;9.090;2022-07-23T02:33:48;13.70;;;13.20;;
20179;SDS011;10249;48.900;9.090;2022-07-23T02:36:15;13.60;;;13.10;;
20179;SDS011;10249;48.900;9.090;2022-07-23T02:38:42;13.50;;;13.00;;
20179;SDS011;10249;48.900;9.090;2022-07-23T02:41:09;13.57;;;13.07;;
20179;SDS011;10249;48.900;9.090;2022-07-23T02:43:35;13.60;;;13.10;;
20179;SDS011;10249;48.900;9.090;2022-07-23T02:46:02;13.83;;;13.33;;
20179;SDS011;10249;48.900;9.090;2022-07-23T02:48:31;13.80;;;13.30;;
20179;SDS011;10249;48.900;9.090;2022-07-23T02:50:57;13.90;;;13.30;;
20179;SDS011;10249;48.900;9.090;2022-07-23T02:53:24;14.20;;;13.60;;
20179;SDS011;10249;48.900;9.090;2022-07-23T02:55:51;14.57;;;13.97;;
20179;SDS011;10249;48.900;9.090;2022-07-23T02:58:18;14.10;;;13.50;;
20179;SDS011;10249;48.900;9.090;2022-07-23T03:00:45;14.27;;;13.67;;
20179;SDS011;10249;48.900;9.090;2022-07-23T03:03:12;14.27;;;13.67;;
20179;SDS011;10249;48.900;9.090;2022-07-23T03:05:40;13.10;;;12.60;;
20179;SDS011;10249;48.900;9.090;2022-07-23T03:08:06;13.40;;;12.90;;
20179;SDS011;10249;48.900;9.090;2022-07-23T03:10:33;13.33;;;12.83;;
20179;SDS011;10249;48.900;9.090;2022-07-23T03:13:00;13.80;;;13.20;;
20179;SDS011;10249;48.900;9.090;2022-07-23T03:15:26;13.93;;;13.33;;
20179;SDS011;10249;48.900;9.090;2022-07-23T03:17:53;13.47;;;12.97;;
20179;SDS011;10249;48.900;9.090;2022-07-23T03:20:20;13.70;;;13.10;;
20179;SDS011;10249;48.900;9.090;2022-07-23T03:22:48;13.33;;;12.83;;
20179;SDS011;10249;48.900;9.090;2022-07-23T03:25:15;14.00;;;13.30;;
20179;SDS011;10249;48.900;9.090;2022-07-23T03:27:41;13.30;;;12.80;;
20179;SDS011;10249;48.900;9.090;2022-07-23T03:30:10;13.30;;;12.80;;
20179;SDS011;10249;48.900;9.090;2022-07-23T03:32:37;13.40;;;12.90;;
20179;SDS011;10249;48.900;9.090;2022-07-23T03:35:04;13.50;;;13.00;;
20179;SDS011;10249;48.900;9.090;2022-07-23T03:37:31;13.13;;;12.63;;
20179;SDS011;10249;48.900;9.090;2022-07-23T03:40:00;12.93;;;12.37;;
20179;SDS011;10249;48.900;9.090;2022-07-23T03:42:26;12.90;;;12.40;;
20179;SDS011;10249;48.900;9.090;2022-07-23T03:44:53;12.80;;;12.30;;
20179;SDS011;10249;48.900;9.090;2022-07-23T03:47:20;13.30;;;12.80;;
20179;SDS011;10249;48.900;9.090;2022-07-23T03:49:47;14.17;;;13.47;;
20179;SDS011;10249;48.900;9.090;2022-07-23T03:52:14;12.60;;;12.10;;
20179;SDS011;10249;48.900;9.090;2022-07-23T03:54:41;12.93;;;12.30;;
20179;SDS011;10249;48.900;9.090;2022-07-23T03:57:09;12.60;;;12.10;;
20179;SDS011;10249;48.900;9.090;2022-07-23T03:59:36;13.40;;;12.80;;
20179;SDS011;10249;48.900;9.090;2022-07-23T04:02:03;12.77;;;12.27;;
20179;SDS011;10249;48.900;9.090;2022-07-23T04:04:29;13.03;;;12.53;;
20179;SDS011;10249;48.900;9.090;2022-07-23T04:06:56;12.60;;;12.10;;
20179;SDS011;10249;48.900;9.090;2022-07-23T04:09:23;12.63;;;12.13;;
20179;SDS011;10249;48.900;9.090;2022-07-23T04:11:49;12.10;;;11.70;;
20179;SDS011;10249;48.900;9.090;2022-07-23T04:14:17;12.17;;;11.77;;
20179;SDS011;10249;48.900;9.090;2022-07-23T04:16:44;12.27;;;11.80;;
20179;SDS011;10249;48.900;9.090;2022-07-23T04:19:11;12.20;;;11.80;;
20179;SDS011;10249;48.900;9.090;2022-07-23T04:21:37;13.87;;;13.27;;
20179;SDS011;10249;48.900;9.090;2022-07-23T04:24:04;12.50;;;12.00;;
20179;SDS011;10249;48.900;9.090;2022-07-23T04:26:31;12.13;;;11.73;;
20179;SDS011;10249;48.900;9.090;2022-07-23T04:28:58;12.13;;;11.73;;
20179;SDS011;10249;48.900;9.090;2022-07-23T04:31:26;12.10;;;11.70;;
20179;SDS011;10249;48.900;9.090;2022-07-23T04:33:53;12.77;;;12.27;;
20179;SDS011;10249;48.900;9.090;2022-07-23T04:36:19;13.00;;;12.50;;
20179;SDS011;10249;48.900;9.090;2022-07-23T04:38:46;12.80;;;12.30;;
20179;SDS011;10249;48.900;9.090;2022-07-23T04:41:13;13.07;;;12.57;;
20179;SDS011;10249;48.900;9.090;2022-07-23T04:43:40;12.80;;;12.30;;
20179;SDS011;10249;48.900;9.090;2022-07-23T04:46:06;12.87;;;12.37;;
20179;SDS011;10249;48.900;9.090;2022-07-23T04:48:34;12.80;;;12.30;;
20179;SDS011;10249;48.900;9.090;2022-07-23T04:51:01;12.80;;;12.30;;
20179;SDS011;10249;48.900;9.090;2022-07-23T04:53:28;12.53;;;12.03;;
20179;SDS011;10249;48.900;9.090;2022-07-23T04:55:55;12.73;;;12.23;;
20179;SDS011;10249;48.900;9.090;2022-07-23T04:58:21;12.47;;;11.97;;
20179;SDS011;10249;48.900;9.090;2022-07-23T05:00:48;13.30;;;12.80;;
20179;SDS011;10249;48.900;9.090;2022-07-23T05:03:15;12.93;;;12.33;;
20179;SDS011;10249;48.900;9.090;2022-07-23T05:05:43;11.93;;;11.53;;
20179;SDS011;10249;48.900;9.090;2022-07-23T05:08:10;12.27;;;11.87;;
20179;SDS011;10249;48.900;9.090;2022-07-23T05:10:37;12.37;;;11.87;;
20179;SDS011;10249;48.900;9.090;2022-07-23T05:13:03;12.13;;;11.73;;
20179;SDS011;10249;48.900;9.090;2022-07-23T05:15:30;12.53;;;12.03;;
20179;SDS011;10249;48.900;9.090;2022-07-23T05:17:57;12.30;;;11.80;;
20179;SDS011;10249;48.900;9.090;2022-07-23T05:20:23;12.37;;;11.90;;
20179;SDS011;10249;48.900;9.090;2022-07-23T05:22:52;12.70;;;12.20;;
20179;SDS011;10249;48.900;9.090;2022-07-23T05:25:19;15.77;;;14.77;;
20179;SDS011;10249;48.900;9.090;2022-07-23T05:27:45;11.83;;;11.43;;
20179;SDS011;10249;48.900;9.090;2022-07-23T05:30:12;11.10;;;10.70;;
20179;SDS011;10249;48.900;9.090;2022-07-23T05:32:39;12.93;;;12.17;;
20179;SDS011;10249;48.900;9.090;2022-07-23T05:35:06;14.23;;;13.53;;
20179;SDS011;10249;48.900;9.090;2022-07-23T05:37:33;9.80;;;9.50;;
20179;SDS011;10249;48.900;9.090;2022-07-23T05:40:02;9.33;;;9.03;;
20179;SDS011;10249;48.900;9.090;2022-07-23T05:42:31;9.93;;;9.63;;
20179;SDS011;10249;48.900;9.090;2022-07-23T05:44:58;13.30;;;12.60;;
20179;SDS011;10249;48.900;9.090;2022-07-23T05:47:24;11.23;;;10.63;;
20179;SDS011;10249;48.900;9.090;2022-07-23T05:49:51;13.20;;;12.57;;
20179;SDS011;10249;48.900;9.090;2022-07-23T05:52:18;8.67;;;8.37;;
20179;SDS011;10249;48.900;9.090;2022-07-23T05:54:45;9.20;;;8.80;;
20179;SDS011;10249;48.900;9.090;2022-07-23T05:57:13;8.40;;;8.10;;
20179;SDS011;10249;48.900;9.090;2022-07-23T05:59:40;7.93;;;7.73;;
20179;SDS011;10249;48.900;9.090;2022-07-23T06:02:07;8.37;;;8.07;;
20179;SDS011;10249;48.900;9.090;2022-07-23T06:04:33;9.20;;;8.90;;
20179;SDS011;10249;48.900;9.090;2022-07-23T06:07:00;9.47;;;9.17;;
20179;SDS011;10249;48.900;9.090;2022-07-23T06:09:27;9.33;;;9.03;;
20179;SDS011;10249;48.900;9.090;2022-07-23T06:11:53;9.90;;;9.60;;
20179;SDS011;10249;48.900;9.090;2022-07-23T06:14:21;10.87;;;10.47;;
20179;SDS011;10249;48.900;9.090;2022-07-23T06:16:48;10.10;;;9.80;;
20179;SDS011;10249;48.900;9.090;2022-07-23T06:19:15;9.90;;;9.60;;
20179;SDS011;10249;48.900;9.090;2022-07-23T06:21:41;9.97;;;9.67;;
20179;SDS011;10249;48.900;9.090;2022-07-23T06:24:08;10.90;;;10.50;;
20179;SDS011;10249;48.900;9.090;2022-07-23T06:26:35;11.20;;;10.80;;
20179;SDS011;10249;48.900;9.090;2022-07-23T06:29:01;11.00;;;10.60;;
20179;SDS011;10249;48.900;9.090;2022-07-23T06:31:30;11.40;;;11.00;;
20179;SDS011;10249;48.900;9.090;2022-07-23T06:33:56;10.93;;;10.53;;
20179;SDS011;10249;48.900;9.090;2022-07-23T06:36:23;14.00;;;13.20;;
20179;SDS011;10249;48.900;9.090;2022-07-23T06:38:50;11.37;;;10.97;;
20179;SDS011;10249;48.900;9.090;2022-07-23T06:41:16;11.97;;;11.57;;
20179;SDS011;10249;48.900;9.090;2022-07-23T06:43:43;13.70;;;13.00;;
20179;SDS011;10249;48.900;9.090;2022-07-23T06:46:10;12.93;;;12.23;;
20179;SDS011;10249;48.900;9.090;2022-07-23T06:48:38;10.93;;;10.53;;
20179;SDS011;10249;48.900;9.090;2022-07-23T06:51:05;12.10;;;11.50;;
20179;SDS011;10249;48.900;9.090;2022-07-23T06:53:31;15.27;;;14.17;;
20179;SDS011;10249;48.900;9.090;2022-07-23T06:55:58;13.97;;;13.07;;
20179;SDS011;10249;48.900;9.090;2022-07-23T06:58:25;13.60;;;12.73;;
20179;SDS011;10249;48.900;9.090;2022-07-23T07:00:52;12.90;;;11.97;;
20179;SDS011;10249;48.900;9.090;2022-07-23T07:03:18;12.43;;;11.23;;
20179;SDS011;10249;48.900;9.090;2022-07-23T07:05:46;13.93;;;11.27;;
20179;SDS011;10249;48.900;9.090;2022-07-23T07:08:14;10.27;;;9.27;;
20179;SDS011;10249;48.900;9.090;2022-07-23T07:10:41;14.00;;;11.63;;
20179;SDS011;10249;48.900;9.090;2022-07-23T07:13:08;10.50;;;9.33;;
20179;SDS011;10249;48.900;9.090;2022-07-23T07:15:35;7.83;;;7.03;;
20179;SDS011;10249;48.900;9.090;2022-07-23T07:18:02;6.50;;;5.90;;
20179;SDS011;10249;48.900;9.090;2022-07-23T07:20:28;3.87;;;3.67;;
20179;SDS011;10249;48.900;9.090;2022-07-23T07:22:56;2.67;;;2.57;;
20179;SDS011;10249;48.900;9.090;2022-07-23T07:25:23;7.37;;;6.50;;
20179;SDS011;10249;48.900;9.090;2022-07-23T07:27:50;7.40;;;6.40;;
20179;SDS011;10249;48.900;9.090;2022-07-23T07:30:17;4.70;;;4.20;;
20179;SDS011;10249;48.900;9.090;2022-07-23T07:32:44;8.93;;;8.13;;
20179;SDS011;10249;48.900;9.090;2022-07-23T07:35:10;7.97;;;7.03;;
20179;SDS011;10249;48.900;9.090;2022-07-23T07:37:37;6.27;;;5.67;;
20179;SDS011;10249;48.900;9.090;2022-07-23T07:40:06;2.53;;;2.43;;
20179;SDS011;10249;48.900;9.090;2022-07-23T07:42:33;8.03;;;5.83;;
20179;SDS011;10249;48.900;9.090;2022-07-23T07:45:00;2.70;;;2.60;;
20179;SDS011;10249;48.900;9.090;2022-07-23T07:47:27;3.30;;;3.20;;
20179;SDS011;10249;48.900;9.090;2022-07-23T07:49:54;2.90;;;2.80;;
20179;SDS011;10249;48.900;9.090;2022-07-23T07:52:22;3.10;;;3.00;;
20179;SDS011;10249;48.900;9.090;2022-07-23T07:54:49;4.70;;;4.50;;
20179;SDS011;10249;48.900;9.090;2022-07-23T07:57:17;4.00;;;3.90;;
20179;SDS011;10249;48.900;9.090;2022-07-23T07:59:44;3.33;;;3.23;;
20179;SDS011;10249;48.900;9.090;2022-07-23T08:02:11;3.60;;;3.50;;
20179;SDS011;10249;48.900;9.090;2022-07-23T08:04:38;4.00;;;3.90;;
20179;SDS011;10249;48.900;9.090;2022-07-23T08:07:05;3.90;;;3.80;;
20179;SDS011;10249;48.900;9.090;2022-07-23T08:09:32;4.03;;;3.93;;
20179;SDS011;10249;48.900;9.090;2022-07-23T08:11:59;3.87;;;3.77;;
20179;SDS011;10249;48.900;9.090;2022-07-23T08:14:27;3.50;;;3.40;;
20179;SDS011;10249;48.900;9.090;2022-07-23T08:16:54;3.87;;;3.77;;
20179;SDS011;10249;48.900;9.090;2022-07-23T08:19:21;4.50;;;4.40;;
20179;SDS011;10249;48.900;9.090;2022-07-23T08:21:49;4.20;;;4.10;;
20179;SDS011;10249;48.900;9.090;2022-07-23T08:24:16;5.97;;;5.77;;
20179;SDS011;10249;48.900;9.090;2022-07-23T08:26:43;6.10;;;5.90;;
20179;SDS011;10249;48.900;9.090;2022-07-23T08:29:10;7.77;;;7.57;;
20179;SDS011;10249;48.900;9.090;2022-07-23T08:31:38;9.10;;;8.80;;
20179;SDS011;10249;48.900;9.090;2022-07-23T08:34:05;9.90;;;9.60;;
20179;SDS011;10249;48.900;9.090;2022-07-23T08:36:32;10.80;;;10.40;;
20179;SDS011;10249;48.900;9.090;2022-07-23T08:38:59;9.80;;;9.50;;
20179;SDS011;10249;48.900;9.090;2022-07-23T08:41:27;12.80;;;12.00;;
20179;SDS011;10249;48.900;9.090;2022-07-23T08:43:54;9.17;;;8.77;;
20179;SDS011;10249;48.900;9.090;2022-07-23T08:46:21;7.80;;;7.50;;
20179;SDS011;10249;48.900;9.090;2022-07-23T08:48:51;8.13;;;7.73;;
20179;SDS011;10249;48.900;9.090;2022-07-23T08:51:19;7.30;;;7.10;;
20179;SDS011;10249;48.900;9.090;2022-07-23T08:53:46;8.50;;;8.20;;
20179;SDS011;10249;48.900;9.090;2022-07-23T08:56:13;7.90;;;7.70;;
20179;SDS011;10249;48.900;9.090;2022-07-23T08:58:40;8.83;;;8.53;;
20179;SDS011;10249;48.900;9.090;2022-07-23T09:01:07;9.83;;;9.53;;
20179;SDS011;10249;48.900;9.090;2022-07-23T09:03:34;10.77;;;10.37;;
20179;SDS011;10249;48.900;9.090;2022-07-23T09:06:04;12.53;;;12.03;;
20179;SDS011;10249;48.900;9.090;2022-07-23T09:08:35;10.50;;;10.10;;
20179;SDS011;10249;48.900;9.090;2022-07-23T09:11:04;15.13;;;14.33;;
20179;SDS011;10249;48.900;9.090;2022-07-23T09:13:34;14.07;;;13.23;;
20179;SDS011;10249;48.900;9.090;2022-07-23T09:16:04;12.73;;;12.13;;
20179;SDS011;10249;48.900;9.090;2022-07-23T09:18:37;11.10;;;10.70;;
20179;SDS011;10249;48.900;9.090;2022-07-23T09:21:11;11.30;;;10.90;;
20179;SDS011;10249;48.900;9.090;2022-07-23T09:23:40;11.60;;;11.20;;
20179;SDS011;10249;48.900;9.090;2022-07-23T09:26:18;12.40;;;11.90;;
20179;SDS011;10249;48.900;9.090;2022-07-23T09:28:56;14.47;;;13.77;;
20179;SDS011;10249;48.900;9.090;2022-07-23T09:31:25;11.93;;;11.47;;
20179;SDS011;10249;48.900;9.090;2022-07-23T09:34:09;14.87;;;14.17;;
20179;SDS011;10249;48.900;9.090;2022-07-23T09:36:42;14.57;;;13.77;;
20179;SDS011;10249;48.900;9.090;2022-07-23T09:39:09;12.10;;;11.60;;
20179;SDS011;10249;48.900;9.090;2022-07-23T09:41:38;16.20;;;15.30;;
20179;SDS011;10249;48.900;9.090;2022-07-23T09:44:10;15.07;;;14.37;;
20179;SDS011;10249;48.900;9.090;2022-07-23T09:46:42;14.00;;;13.40;;
20179;SDS011;10249;48.900;9.090;2022-07-23T09:49:11;16.90;;;16.00;;
20179;SDS011;10249;48.900;9.090;2022-07-23T09:51:47;15.53;;;14.63;;
20179;SDS011;10249;48.900;9.090;2022-07-23T09:54:24;14.95;;;14.07;;
20179;SDS011;10249;48.900;9.090;2022-07-23T09:56:55;14.87;;;14.17;;
20179;SDS011;10249;48.900;9.090;2022-07-23T09:59:24;14.87;;;14.07;;
20179;SDS011;10249;48.900;9.090;2022-07-23T10:01:53;13.50;;;12.93;;
20179;SDS011;10249;48.900;9.090;2022-07-23T10:04:21;12.70;;;12.20;;
20179;SDS011;10249;48.900;9.090;2022-07-23T10:06:52;13.75;;;13.15;;
20179;SDS011;10249;48.900;9.090;2022-07-23T10:09:24;14.10;;;13.50;;
20179;SDS011;10249;48.900;9.090;2022-07-23T10:11:55;12.60;;;12.10;;
20179;SDS011;10249;48.900;9.090;2022-07-23T10:14:41;15.70;;;14.90;;
20179;SDS011;10249;48.900;9.090;2022-07-23T10:17:08;16.17;;;15.27;;
20179;SDS011;10249;48.900;9.090;2022-07-23T10:19:35;16.23;;;15.23;;
20179;SDS011;10249;48.900;9.090;2022-07-23T10:22:04;15.83;;;14.93;;
20179;SDS011;10249;48.900;9.090;2022-07-23T10:24:40;14.67;;;13.87;;
20179;SDS011;10249;48.900;9.090;2022-07-23T10:27:23;17.67;;;16.67;;
20179;SDS011;10249;48.900;9.090;2022-07-23T10:30:10;17.00;;;16.00;;
20179;SDS011;10249;48.900;9.090;2022-07-23T10:32:44;14.55;;;13.75;;
20179;SDS011;10249;48.900;9.090;2022-07-23T10:35:18;17.50;;;16.50;;
20179;SDS011;10249;48.900;9.090;2022-07-23T10:37:53;18.47;;;17.27;;
20179;SDS011;10249;48.900;9.090;2022-07-23T10:40:22;16.38;;;15.48;;
20179;SDS011;10249;48.900;9.090;2022-07-23T10:42:50;16.38;;;15.25;;
20179;SDS011;10249;48.900;9.090;2022-07-23T10:45:22;15.85;;;15.05;;
20179;SDS011;10249;48.900;9.090;2022-07-23T10:48:11;18.17;;;17.15;;
20179;SDS011;10249;48.900;9.090;2022-07-23T10:50:39;16.23;;;15.20;;
20179;SDS011;10249;48.900;9.090;2022-07-23T10:53:09;18.48;;;17.38;;
20179;SDS011;10249;48.900;9.090;2022-07-23T10:55:42;15.88;;;15.13;;
20179;SDS011;10249;48.900;9.090;2022-07-23T10:58:10;16.63;;;15.73;;
20179;SDS011;10249;48.900;9.090;2022-07-23T11:00:42;18.58;;;17.45;;
20179;SDS011;10249;48.900;9.090;2022-07-23T11:05:55;15.70;;;15.00;;
20179;SDS011;10249;48.900;9.090;2022-07-23T11:08:23;15.48;;;14.80;;
20179;SDS011;10249;48.900;9.090;2022-07-23T11:10:54;16.92;;;16.13;;
20179;SDS011;10249;48.900;9.090;2022-07-23T11:13:32;15.90;;;15.23;;
20179;SDS011;10249;48.900;9.090;2022-07-23T11:16:04;17.60;;;16.70;;
20179;SDS011;10249;48.900;9.090;2022-07-23T11:21:41;17.80;;;16.80;;
20179;SDS011;10249;48.900;9.090;2022-07-23T11:24:10;18.73;;;17.52;;
20179;SDS011;10249;48.900;9.090;2022-07-23T11:26:52;18.95;;;17.77;;
20179;SDS011;10249;48.900;9.090;2022-07-23T11:29:39;16.90;;;15.93;;
20179;SDS011;10249;48.900;9.090;2022-07-23T11:32:18;17.70;;;16.77;;
20179;SDS011;10249;48.900;9.090;2022-07-23T11:34:50;17.05;;;16.15;;
20179;SDS011;10249;48.900;9.090;2022-07-23T11:37:35;18.70;;;17.55;;
20179;SDS011;10249;48.900;9.090;2022-07-23T11:40:05;17.63;;;16.73;;
20179;SDS011;10249;48.900;9.090;2022-07-23T11:42:35;18.17;;;17.17;;
20179;SDS011;10249;48.900;9.090;2022-07-23T11:45:04;18.73;;;17.73;;
20179;SDS011;10249;48.900;9.090;2022-07-23T11:47:32;16.70;;;15.85;;
20179;SDS011;10249;48.900;9.090;2022-07-23T11:49:59;17.80;;;16.80;;
20179;SDS011;10249;48.900;9.090;2022-07-23T11:52:27;16.45;;;15.65;;
20179;SDS011;10249;48.900;9.090;2022-07-23T11:54:55;17.55;;;16.65;;
20179;SDS011;10249;48.900;9.090;2022-07-23T11:57:27;18.08;;;17.10;;
20179;SDS011;10249;48.900;9.090;2022-07-23T11:59:55;17.95;;;16.85;;
20179;SDS011;10249;48.900;9.090;2022-07-23T12:02:23;19.10;;;17.85;;
20179;SDS011;10249;48.900;9.090;2022-07-23T12:04:51;18.10;;;17.10;;
20179;SDS011;10249;48.900;9.090;2022-07-23T12:07:23;19.38;;;18.17;;
20179;SDS011;10249;48.900;9.090;2022-07-23T12:09:54;17.38;;;16.50;;
20179;SDS011;10249;48.900;9.090;2022-07-23T12:12:24;18.38;;;17.20;;
20179;SDS011;10249;48.900;9.090;2022-07-23T12:14:51;17.63;;;16.58;;
20179;SDS011;10249;48.900;9.090;2022-07-23T12:17:20;18.88;;;17.67;;
20179;SDS011;10249;48.900;9.090;2022-07-23T12:19:52;20.52;;;19.23;;
20179;SDS011;10249;48.900;9.090;2022-07-23T12:22:20;16.70;;;15.80;;
20179;SDS011;10249;48.900;9.090;2022-07-23T12:24:54;15.50;;;14.80;;
20179;SDS011;10249;48.900;9.090;2022-07-23T12:27:22;18.30;;;17.33;;
20179;SDS011;10249;48.900;9.090;2022-07-23T12:29:51;18.58;;;17.58;;
20179;SDS011;10249;48.900;9.090;2022-07-23T12:32:19;19.95;;;18.77;;
20179;SDS011;10249;48.900;9.090;2022-07-23T12:34:48;16.60;;;15.80;;
20179;SDS011;10249;48.900;9.090;2022-07-23T12:37:28;19.88;;;18.63;;
20179;SDS011;10249;48.900;9.090;2022-07-23T12:39:56;17.63;;;16.73;;
20179;SDS011;10249;48.900;9.090;2022-07-23T12:42:23;19.40;;;18.25;;
20179;SDS011;10249;48.900;9.090;2022-07-23T12:45:05;20.05;;;18.77;;
20179;SDS011;10249;48.900;9.090;2022-07-23T12:50:42;18.83;;;17.60;;
20179;SDS011;10249;48.900;9.090;2022-07-23T12:53:11;17.08;;;16.25;;
20179;SDS011;10249;48.900;9.090;2022-07-23T12:55:40;16.55;;;15.75;;
20179;SDS011;10249;48.900;9.090;2022-07-23T12:58:09;21.08;;;19.88;;
20179;SDS011;10249;48.900;9.090;2022-07-23T13:00:52;17.40;;;16.50;;
20179;SDS011;10249;48.900;9.090;2022-07-23T13:03:25;18.30;;;17.20;;
20179;SDS011;10249;48.900;9.090;2022-07-23T13:05:54;14.93;;;14.32;;
20179;SDS011;10249;48.900;9.090;2022-07-23T13:08:21;18.88;;;17.50;;
20179;SDS011;10249;48.900;9.090;2022-07-23T13:10:49;17.65;;;16.75;;
20179;SDS011;10249;48.900;9.090;2022-07-23T13:13:16;16.67;;;15.77;;
20179;SDS011;10249;48.900;9.090;2022-07-23T13:15:43;18.25;;;17.25;;
20179;SDS011;10249;48.900;9.090;2022-07-23T13:18:11;19.58;;;18.38;;
20179;SDS011;10249;48.900;9.090;2022-07-23T13:20:38;20.45;;;19.05;;
20179;SDS011;10249;48.900;9.090;2022-07-23T13:23:05;19.77;;;18.60;;
20179;SDS011;10249;48.900;9.090;2022-07-23T13:25:32;19.92;;;18.67;;
20179;SDS011;10249;48.900;9.090;2022-07-23T13:27:59;16.42;;;15.63;;
20179;SDS011;10249;48.900;9.090;2022-07-23T13:30:26;20.20;;;18.90;;
20179;SDS011;10249;48.900;9.090;2022-07-23T13:32:53;19.42;;;18.42;;
20179;SDS011;10249;48.900;9.090;2022-07-23T13:35:21;20.17;;;18.98;;
20179;SDS011;10249;48.900;9.090;2022-07-23T13:37:48;20.40;;;19.15;;
20179;SDS011;10249;48.900;9.090;2022-07-23T13:40:15;15.82;;;15.13;;
20179;SDS011;10249;48.900;9.090;2022-07-23T13:42:41;17.05;;;15.98;;
20179;SDS011;10249;48.900;9.090;2022-07-23T13:45:08;18.75;;;17.65;;
20179;SDS011;10249;48.900;9.090;2022-07-23T13:47:35;17.77;;;16.77;;
20179;SDS011;10249;48.900;9.090;2022-07-23T13:50:02;18.10;;;16.98;;
20179;SDS011;10249;48.900;9.090;2022-07-23T13:52:31;19.25;;;18.15;;
20179;SDS011;10249;48.900;9.090;2022-07-23T13:54:58;17.08;;;16.27;;
20179;SDS011;10249;48.900;9.090;2022-07-23T13:57:25;18.85;;;17.85;;
20179;SDS011;10249;48.900;9.090;2022-07-23T13:59:52;19.58;;;18.30;;
20179;SDS011;10249;48.900;9.090;2022-07-23T14:02:19;18.52;;;17.52;;
20179;SDS011;10249;48.900;9.090;2022-07-23T14:04:45;18.05;;;17.15;;
20179;SDS011;10249;48.900;9.090;2022-07-23T14:07:12;19.90;;;18.70;;
20179;SDS011;10249;48.900;9.090;2022-07-23T14:09:40;19.02;;;17.77;;
20179;SDS011;10249;48.900;9.090;2022-07-23T14:12:07;16.90;;;16.08;;
20179;SDS011;10249;48.900;9.090;2022-07-23T14:14:35;20.10;;;19.00;;
20179;SDS011;10249;48.900;9.090;2022-07-23T14:17:01;17.77;;;16.88;;
20179;SDS011;10249;48.900;9.090;2022-07-23T14:19:28;18.52;;;17.58;;
20179;SDS011;10249;48.900;9.090;2022-07-23T14:21:55;20.10;;;18.95;;
20179;SDS011;10249;48.900;9.090;2022-07-23T14:24:22;20.17;;;18.98;;
20179;SDS011;10249;48.900;9.090;2022-07-23T14:26:50;19.45;;;18.35;;
20179;SDS011;10249;48.900;9.090;2022-07-23T14:29:17;19.35;;;18.15;;
20179;SDS011;10249;48.900;9.090;2022-07-23T14:31:43;18.52;;;17.52;;
20179;SDS011;10249;48.900;9.090;2022-07-23T14:34:10;17.75;;;16.65;;
20179;SDS011;10249;48.900;9.090;2022-07-23T14:36:37;19.27;;;18.08;;
20179;SDS011;10249;48.900;9.090;2022-07-23T14:39:04;19.75;;;18.55;;
20179;SDS011;10249;48.900;9.090;2022-07-23T14:41:33;19.50;;;18.40;;